sensor_id;sensor_type;location;lat;lon;timestamp;temperature;humidity
75442;DHT22;64019;48.312;14.226;2023-07-22T00:00:50;18.10;99.90
75442;DHT22;64019;48.312;14.226;2023-07-22T00:03:15;18.10;99.90
75442;DHT22;64019;48.312;14.226;2023-07-22T00:05:41;18.10;99.90
75442;DHT22;64019;48.312;14.226;2023-07-22T00:08:07;18.00;99.90
75442;DHT22;64019;48.312;14.226;2023-07-22T00:10:33;18.00;99.90
75442;DHT22;64019;48.312;14.226;2023-07-22T00:12:58;18.00;99.90
75442;DHT22;64019;48.312;14.226;2023-07-22T00:15:24;18.00;99.90
75442;DHT22;64019;48.312;14.226;2023-07-22T00:17:50;18.00;99.90
75442;DHT22;64019;48.312;14.226;2023-07-22T00:20:16;18.00;99.90
75442;DHT22;64019;48.312;14.226;2023-07-22T00:22:42;18.00;99.90
75442;DHT22;64019;48.312;14.226;2023-07-22T00:25:11;18.00;99.90
75442;DHT22;64019;48.312;14.226;2023-07-22T00:27:38;18.00;99.90
75442;DHT22;64019;48.312;14.226;2023-07-22T00:30:08;18.10;99.90
75442;DHT22;64019;48.312;14.226;2023-07-22T00:32:35;18.00;99.90
75442;DHT22;64019;48.312;14.226;2023-07-22T00:35:05;18.10;99.90
75442;DHT22;64019;48.312;14.226;2023-07-22T00:37:31;18.10;99.90
75442;DHT22;64019;48.312;14.226;2023-07-22T00:39:57;18.10;99.90
75442;DHT22;64019;48.312;14.226;2023-07-22T00:42:24;18.10;99.90
75442;DHT22;64019;48.312;14.226;2023-07-22T00:44:50;18.20;99.90
75442;DHT22;64019;48.312;14.226;2023-07-22T00:47:16;18.20;99.90
75442;DHT22;64019;48.312;14.226;2023-07-22T00:49:43;18.20;99.90
75442;DHT22;64019;48.312;14.226;2023-07-22T00:52:09;18.10;99.90
75442;DHT22;64019;48.312;14.226;2023-07-22T00:54:35;18.20;99.90
75442;DHT22;64019;48.312;14.226;2023-07-22T00:57:01;18.10;99.90
75442;DHT22;64019;48.312;14.226;2023-07-22T00:59:27;18.10;99.90
75442;DHT22;64019;48.312;14.226;2023-07-22T01:01:55;18.00;99.90
75442;DHT22;64019;48.312;14.226;2023-07-22T01:04:21;18.00;99.90
75442;DHT22;64019;48.312;14.226;2023-07-22T01:06:49;18.00;99.90
75442;DHT22;64019;48.312;14.226;2023-07-22T01:09:15;18.00;99.90
75442;DHT22;64019;48.312;14.226;2023-07-22T01:11:40;18.00;99.90
75442;DHT22;64019;48.312;14.226;2023-07-22T01:14:06;18.00;99.90
75442;DHT22;64019;48.312;14.226;2023-07-22T01:16:33;17.90;99.90
75442;DHT22;64019;48.312;14.226;2023-07-22T01:18:59;17.80;99.90
75442;DHT22;64019;48.312;14.226;2023-07-22T01:21:26;17.80;99.90
75442;DHT22;64019;48.312;14.226;2023-07-22T01:23:53;17.90;99.90
75442;DHT22;64019;48.312;14.226;2023-07-22T01:26:20;17.80;99.90
75442;DHT22;64019;48.312;14.226;2023-07-22T01:28:45;17.80;99.90
75442;DHT22;64019;48.312;14.226;2023-07-22T01:31:11;17.80;99.90
75442;DHT22;64019;48.312;14.226;2023-07-22T01:33:37;17.80;99.90
75442;DHT22;64019;48.312;14.226;2023-07-22T01:36:03;17.70;99.90
75442;DHT22;64019;48.312;14.226;2023-07-22T01:38:29;17.70;99.90
75442;DHT22;64019;48.312;14.226;2023-07-22T01:40:56;17.70;99.90
75442;DHT22;64019;48.312;14.226;2023-07-22T01:43:22;17.70;99.90
75442;DHT22;64019;48.312;14.226;2023-07-22T01:45:48;17.70;99.90
75442;DHT22;64019;48.312;14.226;2023-07-22T01:48:13;17.70;99.90
75442;DHT22;64019;48.312;14.226;2023-07-22T01:50:39;17.80;99.90
75442;DHT22;64019;48.312;14.226;2023-07-22T01:53:05;17.70;99.90
75442;DHT22;64019;48.312;14.226;2023-07-22T01:55:31;17.70;99.90
75442;DHT22;64019;48.312;14.226;2023-07-22T01:57:58;17.70;99.90
75442;DHT22;64019;48.312;14.226;2023-07-22T02:00:25;17.60;99.90
75442;DHT22;64019;48.312;14.226;2023-07-22T02:02:52;17.60;99.90
75442;DHT22;64019;48.312;14.226;2023-07-22T02:05:17;17.60;99.90
75442;DHT22;64019;48.312;14.226;2023-07-22T02:07:43;17.60;99.90
75442;DHT22;64019;48.312;14.226;2023-07-22T02:10:09;17.70;99.90
75442;DHT22;64019;48.312;14.226;2023-07-22T02:12:35;17.70;99.90
75442;DHT22;64019;48.312;14.226;2023-07-22T02:15:01;17.70;99.90
75442;DHT22;64019;48.312;14.226;2023-07-22T02:17:28;17.60;99.90
75442;DHT22;64019;48.312;14.226;2023-07-22T02:19:54;17.60;99.90
75442;DHT22;64019;48.312;14.226;2023-07-22T02:22:20;17.60;99.90
75442;DHT22;64019;48.312;14.226;2023-07-22T02:24:46;17.60;99.90
75442;DHT22;64019;48.312;14.226;2023-07-22T02:27:11;17.60;99.90
75442;DHT22;64019;48.312;14.226;2023-07-22T02:29:37;17.60;99.90
75442;DHT22;64019;48.312;14.226;2023-07-22T02:32:03;17.50;99.90
75442;DHT22;64019;48.312;14.226;2023-07-22T02:34:29;17.50;99.90
75442;DHT22;64019;48.312;14.226;2023-07-22T02:36:54;17.50;99.90
75442;DHT22;64019;48.312;14.226;2023-07-22T02:39:20;17.40;99.90
75442;DHT22;64019;48.312;14.226;2023-07-22T02:41:46;17.30;99.90
75442;DHT22;64019;48.312;14.226;2023-07-22T02:44:12;17.30;99.90
75442;DHT22;64019;48.312;14.226;2023-07-22T02:46:38;17.20;99.90
75442;DHT22;64019;48.312;14.226;2023-07-22T02:49:03;17.20;99.90
75442;DHT22;64019;48.312;14.226;2023-07-22T02:51:30;17.10;99.90
75442;DHT22;64019;48.312;14.226;2023-07-22T02:53:56;17.10;99.90
75442;DHT22;64019;48.312;14.226;2023-07-22T02:56:22;17.10;99.90
75442;DHT22;64019;48.312;14.226;2023-07-22T02:58:49;17.00;99.90
75442;DHT22;64019;48.312;14.226;2023-07-22T03:01:15;17.00;99.90
75442;DHT22;64019;48.312;14.226;2023-07-22T03:03:41;16.90;99.90
75442;DHT22;64019;48.312;14.226;2023-07-22T03:06:06;16.90;99.90
75442;DHT22;64019;48.312;14.226;2023-07-22T03:08:34;16.90;99.90
75442;DHT22;64019;48.312;14.226;2023-07-22T03:11:00;16.80;99.90
75442;DHT22;64019;48.312;14.226;2023-07-22T03:13:26;16.80;99.90
75442;DHT22;64019;48.312;14.226;2023-07-22T03:15:55;16.80;99.90
75442;DHT22;64019;48.312;14.226;2023-07-22T03:18:21;16.70;99.90
75442;DHT22;64019;48.312;14.226;2023-07-22T03:20:46;16.70;99.90
75442;DHT22;64019;48.312;14.226;2023-07-22T03:23:12;16.70;99.90
75442;DHT22;64019;48.312;14.226;2023-07-22T03:25:38;16.60;99.90
75442;DHT22;64019;48.312;14.226;2023-07-22T03:28:05;16.60;99.90
75442;DHT22;64019;48.312;14.226;2023-07-22T03:30:31;16.60;99.90
75442;DHT22;64019;48.312;14.226;2023-07-22T03:32:57;16.60;99.90
75442;DHT22;64019;48.312;14.226;2023-07-22T03:35:23;16.50;99.90
75442;DHT22;64019;48.312;14.226;2023-07-22T03:37:49;16.40;99.90
75442;DHT22;64019;48.312;14.226;2023-07-22T03:40:14;16.40;99.90
75442;DHT22;64019;48.312;14.226;2023-07-22T03:42:55;16.40;99.90
75442;DHT22;64019;48.312;14.226;2023-07-22T03:45:22;16.40;99.90
75442;DHT22;64019;48.312;14.226;2023-07-22T03:47:51;16.40;99.90
75442;DHT22;64019;48.312;14.226;2023-07-22T03:50:18;16.40;99.90
75442;DHT22;64019;48.312;14.226;2023-07-22T03:52:44;16.30;99.90
75442;DHT22;64019;48.312;14.226;2023-07-22T03:55:09;16.30;99.90
75442;DHT22;64019;48.312;14.226;2023-07-22T03:57:36;16.20;99.90
75442;DHT22;64019;48.312;14.226;2023-07-22T04:00:03;16.20;99.90
75442;DHT22;64019;48.312;14.226;2023-07-22T04:02:34;16.20;99.90
75442;DHT22;64019;48.312;14.226;2023-07-22T04:05:00;16.20;99.90
75442;DHT22;64019;48.312;14.226;2023-07-22T04:07:26;16.20;99.90
75442;DHT22;64019;48.312;14.226;2023-07-22T04:09:51;16.10;99.90
75442;DHT22;64019;48.312;14.226;2023-07-22T04:12:17;16.10;99.90
75442;DHT22;64019;48.312;14.226;2023-07-22T04:14:43;16.00;99.90
75442;DHT22;64019;48.312;14.226;2023-07-22T04:17:08;15.90;99.90
75442;DHT22;64019;48.312;14.226;2023-07-22T04:19:34;15.90;99.90
75442;DHT22;64019;48.312;14.226;2023-07-22T04:22:01;15.90;99.90
75442;DHT22;64019;48.312;14.226;2023-07-22T04:24:32;15.90;99.90
75442;DHT22;64019;48.312;14.226;2023-07-22T04:26:58;15.90;99.90
75442;DHT22;64019;48.312;14.226;2023-07-22T04:29:24;15.90;99.90
75442;DHT22;64019;48.312;14.226;2023-07-22T04:31:49;15.90;99.90
75442;DHT22;64019;48.312;14.226;2023-07-22T04:34:15;15.90;99.90
75442;DHT22;64019;48.312;14.226;2023-07-22T04:36:41;16.00;99.90
75442;DHT22;64019;48.312;14.226;2023-07-22T04:39:07;15.90;99.90
75442;DHT22;64019;48.312;14.226;2023-07-22T04:41:33;15.90;99.90
75442;DHT22;64019;48.312;14.226;2023-07-22T04:43:59;15.90;99.90
75442;DHT22;64019;48.312;14.226;2023-07-22T04:46:26;16.00;99.90
75442;DHT22;64019;48.312;14.226;2023-07-22T04:48:55;16.10;99.90
75442;DHT22;64019;48.312;14.226;2023-07-22T04:51:22;16.10;99.90
75442;DHT22;64019;48.312;14.226;2023-07-22T04:53:47;16.20;99.90
75442;DHT22;64019;48.312;14.226;2023-07-22T04:56:13;16.30;99.90
75442;DHT22;64019;48.312;14.226;2023-07-22T04:58:39;16.40;99.90
75442;DHT22;64019;48.312;14.226;2023-07-22T05:01:05;16.50;99.90
75442;DHT22;64019;48.312;14.226;2023-07-22T05:03:30;16.60;99.90
75442;DHT22;64019;48.312;14.226;2023-07-22T05:05:56;16.70;99.90
75442;DHT22;64019;48.312;14.226;2023-07-22T05:08:23;16.80;99.90
75442;DHT22;64019;48.312;14.226;2023-07-22T05:10:49;16.70;99.90
75442;DHT22;64019;48.312;14.226;2023-07-22T05:13:14;16.70;99.90
75442;DHT22;64019;48.312;14.226;2023-07-22T05:15:41;16.70;99.90
75442;DHT22;64019;48.312;14.226;2023-07-22T05:18:07;16.80;99.90
75442;DHT22;64019;48.312;14.226;2023-07-22T05:20:33;16.80;99.90
75442;DHT22;64019;48.312;14.226;2023-07-22T05:22:58;16.90;99.90
75442;DHT22;64019;48.312;14.226;2023-07-22T05:25:24;17.00;99.90
75442;DHT22;64019;48.312;14.226;2023-07-22T05:27:50;17.10;99.90
75442;DHT22;64019;48.312;14.226;2023-07-22T05:30:15;17.10;99.90
75442;DHT22;64019;48.312;14.226;2023-07-22T05:32:41;17.20;99.90
75442;DHT22;64019;48.312;14.226;2023-07-22T05:35:07;17.20;99.90
75442;DHT22;64019;48.312;14.226;2023-07-22T05:37:33;17.20;99.90
75442;DHT22;64019;48.312;14.226;2023-07-22T05:39:59;17.20;99.90
75442;DHT22;64019;48.312;14.226;2023-07-22T05:42:25;17.30;99.90
75442;DHT22;64019;48.312;14.226;2023-07-22T05:44:53;17.30;99.90
75442;DHT22;64019;48.312;14.226;2023-07-22T05:47:19;17.40;99.90
75442;DHT22;64019;48.312;14.226;2023-07-22T05:49:45;17.40;99.90
75442;DHT22;64019;48.312;14.226;2023-07-22T05:52:10;17.40;99.90
75442;DHT22;64019;48.312;14.226;2023-07-22T05:54:36;17.40;99.90
75442;DHT22;64019;48.312;14.226;2023-07-22T05:57:02;17.40;99.90
75442;DHT22;64019;48.312;14.226;2023-07-22T05:59:30;17.50;99.90
75442;DHT22;64019;48.312;14.226;2023-07-22T06:01:56;17.70;99.90
75442;DHT22;64019;48.312;14.226;2023-07-22T06:04:22;17.70;99.90
75442;DHT22;64019;48.312;14.226;2023-07-22T06:06:48;17.70;99.90
75442;DHT22;64019;48.312;14.226;2023-07-22T06:09:14;17.70;99.90
75442;DHT22;64019;48.312;14.226;2023-07-22T06:11:39;17.80;99.90
75442;DHT22;64019;48.312;14.226;2023-07-22T06:14:05;17.90;99.90
75442;DHT22;64019;48.312;14.226;2023-07-22T06:16:32;17.90;99.90
75442;DHT22;64019;48.312;14.226;2023-07-22T06:18:57;17.90;99.90
75442;DHT22;64019;48.312;14.226;2023-07-22T06:21:23;17.80;99.90
75442;DHT22;64019;48.312;14.226;2023-07-22T06:23:49;18.00;99.90
75442;DHT22;64019;48.312;14.226;2023-07-22T06:26:15;18.10;99.90
75442;DHT22;64019;48.312;14.226;2023-07-22T06:28:40;18.10;99.90
75442;DHT22;64019;48.312;14.226;2023-07-22T06:31:06;18.20;99.90
75442;DHT22;64019;48.312;14.226;2023-07-22T06:33:33;18.30;99.90
75442;DHT22;64019;48.312;14.226;2023-07-22T06:35:59;18.40;99.90
75442;DHT22;64019;48.312;14.226;2023-07-22T06:38:25;18.50;99.90
75442;DHT22;64019;48.312;14.226;2023-07-22T06:40:52;18.60;99.90
75442;DHT22;64019;48.312;14.226;2023-07-22T06:43:18;18.70;99.90
75442;DHT22;64019;48.312;14.226;2023-07-22T06:45:44;18.70;99.90
75442;DHT22;64019;48.312;14.226;2023-07-22T06:48:10;18.80;99.90
75442;DHT22;64019;48.312;14.226;2023-07-22T06:50:35;18.80;99.90
75442;DHT22;64019;48.312;14.226;2023-07-22T06:53:01;18.90;99.90
75442;DHT22;64019;48.312;14.226;2023-07-22T06:55:27;18.80;99.90
75442;DHT22;64019;48.312;14.226;2023-07-22T06:57:55;18.80;99.90
75442;DHT22;64019;48.312;14.226;2023-07-22T07:00:21;18.70;99.90
75442;DHT22;64019;48.312;14.226;2023-07-22T07:02:47;18.80;99.90
75442;DHT22;64019;48.312;14.226;2023-07-22T07:05:13;18.90;99.90
75442;DHT22;64019;48.312;14.226;2023-07-22T07:07:38;19.00;99.90
75442;DHT22;64019;48.312;14.226;2023-07-22T07:10:05;19.00;99.90
75442;DHT22;64019;48.312;14.226;2023-07-22T07:12:31;19.10;99.90
75442;DHT22;64019;48.312;14.226;2023-07-22T07:14:57;19.10;99.90
75442;DHT22;64019;48.312;14.226;2023-07-22T07:17:23;19.20;99.90
75442;DHT22;64019;48.312;14.226;2023-07-22T07:19:48;19.20;99.90
75442;DHT22;64019;48.312;14.226;2023-07-22T07:22:14;19.40;99.90
75442;DHT22;64019;48.312;14.226;2023-07-22T07:24:40;19.50;99.90
75442;DHT22;64019;48.312;14.226;2023-07-22T07:27:06;19.60;99.90
75442;DHT22;64019;48.312;14.226;2023-07-22T07:29:31;19.60;99.90
75442;DHT22;64019;48.312;14.226;2023-07-22T07:31:57;19.60;99.90
75442;DHT22;64019;48.312;14.226;2023-07-22T07:34:23;19.80;99.90
75442;DHT22;64019;48.312;14.226;2023-07-22T07:36:49;19.80;99.90
75442;DHT22;64019;48.312;14.226;2023-07-22T07:39:14;19.80;99.90
75442;DHT22;64019;48.312;14.226;2023-07-22T07:41:42;20.00;99.90
75442;DHT22;64019;48.312;14.226;2023-07-22T07:44:08;20.10;99.90
75442;DHT22;64019;48.312;14.226;2023-07-22T07:46:33;20.10;99.90
75442;DHT22;64019;48.312;14.226;2023-07-22T07:49:00;20.10;99.90
75442;DHT22;64019;48.312;14.226;2023-07-22T07:51:27;20.20;99.90
75442;DHT22;64019;48.312;14.226;2023-07-22T07:53:54;20.20;99.90
75442;DHT22;64019;48.312;14.226;2023-07-22T07:56:20;20.30;99.90
75442;DHT22;64019;48.312;14.226;2023-07-22T07:58:48;20.20;99.90
75442;DHT22;64019;48.312;14.226;2023-07-22T08:01:14;20.40;99.90
75442;DHT22;64019;48.312;14.226;2023-07-22T08:03:41;20.50;99.90
75442;DHT22;64019;48.312;14.226;2023-07-22T08:06:08;20.50;99.90
75442;DHT22;64019;48.312;14.226;2023-07-22T08:08:34;20.50;99.90
75442;DHT22;64019;48.312;14.226;2023-07-22T08:11:11;20.50;99.90
75442;DHT22;64019;48.312;14.226;2023-07-22T08:13:38;20.70;99.90
75442;DHT22;64019;48.312;14.226;2023-07-22T08:16:06;20.70;99.90
75442;DHT22;64019;48.312;14.226;2023-07-22T08:18:32;20.80;99.90
75442;DHT22;64019;48.312;14.226;2023-07-22T08:20:59;20.70;99.90
75442;DHT22;64019;48.312;14.226;2023-07-22T08:23:25;20.70;99.90
75442;DHT22;64019;48.312;14.226;2023-07-22T08:25:51;20.90;99.90
75442;DHT22;64019;48.312;14.226;2023-07-22T08:28:17;20.90;99.90
75442;DHT22;64019;48.312;14.226;2023-07-22T08:30:43;21.00;99.90
75442;DHT22;64019;48.312;14.226;2023-07-22T08:33:10;20.90;99.90
75442;DHT22;64019;48.312;14.226;2023-07-22T08:35:39;20.90;99.90
75442;DHT22;64019;48.312;14.226;2023-07-22T08:38:05;21.00;99.90
75442;DHT22;64019;48.312;14.226;2023-07-22T08:40:39;21.00;99.90
75442;DHT22;64019;48.312;14.226;2023-07-22T08:43:06;21.00;99.90
75442;DHT22;64019;48.312;14.226;2023-07-22T08:45:34;21.00;99.90
75442;DHT22;64019;48.312;14.226;2023-07-22T08:48:04;20.90;99.90
75442;DHT22;64019;48.312;14.226;2023-07-22T08:50:53;21.10;99.90
75442;DHT22;64019;48.312;14.226;2023-07-22T08:53:20;21.10;99.90
75442;DHT22;64019;48.312;14.226;2023-07-22T08:55:47;21.30;99.90
75442;DHT22;64019;48.312;14.226;2023-07-22T08:58:16;21.40;99.90
75442;DHT22;64019;48.312;14.226;2023-07-22T09:00:42;21.40;99.90
75442;DHT22;64019;48.312;14.226;2023-07-22T09:03:09;21.50;99.90
75442;DHT22;64019;48.312;14.226;2023-07-22T09:05:36;21.40;99.90
75442;DHT22;64019;48.312;14.226;2023-07-22T09:08:04;21.40;99.90
75442;DHT22;64019;48.312;14.226;2023-07-22T09:10:30;21.40;99.90
75442;DHT22;64019;48.312;14.226;2023-07-22T09:12:57;21.30;99.90
75442;DHT22;64019;48.312;14.226;2023-07-22T09:15:24;21.40;99.90
75442;DHT22;64019;48.312;14.226;2023-07-22T09:17:51;21.40;99.90
75442;DHT22;64019;48.312;14.226;2023-07-22T09:20:17;21.30;99.90
75442;DHT22;64019;48.312;14.226;2023-07-22T09:22:47;21.30;99.90
75442;DHT22;64019;48.312;14.226;2023-07-22T09:25:20;21.30;99.90
75442;DHT22;64019;48.312;14.226;2023-07-22T09:27:51;21.40;99.90
75442;DHT22;64019;48.312;14.226;2023-07-22T09:30:36;21.50;99.90
75442;DHT22;64019;48.312;14.226;2023-07-22T09:33:04;21.50;99.90
75442;DHT22;64019;48.312;14.226;2023-07-22T09:35:32;21.50;99.90
75442;DHT22;64019;48.312;14.226;2023-07-22T09:38:08;21.60;99.90
75442;DHT22;64019;48.312;14.226;2023-07-22T09:40:34;21.60;99.90
75442;DHT22;64019;48.312;14.226;2023-07-22T09:43:03;21.90;99.90
75442;DHT22;64019;48.312;14.226;2023-07-22T09:45:30;22.20;99.90
75442;DHT22;64019;48.312;14.226;2023-07-22T09:47:56;22.10;99.90
75442;DHT22;64019;48.312;14.226;2023-07-22T09:50:24;22.10;99.90
75442;DHT22;64019;48.312;14.226;2023-07-22T09:52:58;22.10;99.90
75442;DHT22;64019;48.312;14.226;2023-07-22T09:55:26;22.20;99.90
75442;DHT22;64019;48.312;14.226;2023-07-22T10:00:24;22.20;99.90
75442;DHT22;64019;48.312;14.226;2023-07-22T10:02:51;22.20;99.90
75442;DHT22;64019;48.312;14.226;2023-07-22T10:05:19;22.30;99.90
75442;DHT22;64019;48.312;14.226;2023-07-22T10:07:54;22.40;99.90
75442;DHT22;64019;48.312;14.226;2023-07-22T10:10:24;22.50;99.90
75442;DHT22;64019;48.312;14.226;2023-07-22T10:12:51;22.60;99.90
75442;DHT22;64019;48.312;14.226;2023-07-22T10:15:18;22.70;99.90
75442;DHT22;64019;48.312;14.226;2023-07-22T10:17:45;22.80;99.90
75442;DHT22;64019;48.312;14.226;2023-07-22T10:20:12;22.70;99.90
75442;DHT22;64019;48.312;14.226;2023-07-22T10:22:45;22.70;99.90
75442;DHT22;64019;48.312;14.226;2023-07-22T10:25:20;22.70;99.90
75442;DHT22;64019;48.312;14.226;2023-07-22T10:27:48;22.90;99.90
75442;DHT22;64019;48.312;14.226;2023-07-22T10:30:16;22.90;99.90
75442;DHT22;64019;48.312;14.226;2023-07-22T10:32:49;23.00;99.90
75442;DHT22;64019;48.312;14.226;2023-07-22T10:35:43;23.00;99.90
75442;DHT22;64019;48.312;14.226;2023-07-22T10:38:14;23.00;99.90
75442;DHT22;64019;48.312;14.226;2023-07-22T10:40:51;23.00;99.90
75442;DHT22;64019;48.312;14.226;2023-07-22T10:43:31;23.10;99.90
75442;DHT22;64019;48.312;14.226;2023-07-22T10:46:10;23.10;99.90
75442;DHT22;64019;48.312;14.226;2023-07-22T10:48:40;23.10;99.90
75442;DHT22;64019;48.312;14.226;2023-07-22T10:51:08;23.40;99.90
75442;DHT22;64019;48.312;14.226;2023-07-22T10:53:44;23.60;99.90
75442;DHT22;64019;48.312;14.226;2023-07-22T11:01:35;23.60;99.90
75442;DHT22;64019;48.312;14.226;2023-07-22T11:06:35;23.40;99.90
75442;DHT22;64019;48.312;14.226;2023-07-22T11:09:01;23.30;99.90
75442;DHT22;64019;48.312;14.226;2023-07-22T11:11:44;23.30;99.90
75442;DHT22;64019;48.312;14.226;2023-07-22T11:14:17;23.40;99.90
75442;DHT22;64019;48.312;14.226;2023-07-22T11:16:46;23.40;99.90
75442;DHT22;64019;48.312;14.226;2023-07-22T11:19:20;23.50;99.90
75442;DHT22;64019;48.312;14.226;2023-07-22T11:21:48;23.50;99.90
75442;DHT22;64019;48.312;14.226;2023-07-22T11:24:14;23.50;99.90
75442;DHT22;64019;48.312;14.226;2023-07-22T11:26:40;23.60;99.90
75442;DHT22;64019;48.312;14.226;2023-07-22T11:29:07;23.70;99.90
75442;DHT22;64019;48.312;14.226;2023-07-22T11:31:35;23.60;99.90
75442;DHT22;64019;48.312;14.226;2023-07-22T11:34:08;23.70;99.90
75442;DHT22;64019;48.312;14.226;2023-07-22T11:36:34;23.60;99.90
75442;DHT22;64019;48.312;14.226;2023-07-22T11:39:06;23.60;99.90
75442;DHT22;64019;48.312;14.226;2023-07-22T11:41:32;23.60;99.90
75442;DHT22;64019;48.312;14.226;2023-07-22T11:44:02;23.60;99.90
75442;DHT22;64019;48.312;14.226;2023-07-22T11:46:35;23.60;99.90
75442;DHT22;64019;48.312;14.226;2023-07-22T11:49:00;23.60;99.90
75442;DHT22;64019;48.312;14.226;2023-07-22T11:51:26;23.80;99.90
75442;DHT22;64019;48.312;14.226;2023-07-22T11:53:54;23.80;99.90
75442;DHT22;64019;48.312;14.226;2023-07-22T11:56:28;23.70;99.90
75442;DHT22;64019;48.312;14.226;2023-07-22T11:58:57;23.70;99.90
75442;DHT22;64019;48.312;14.226;2023-07-22T12:01:23;23.70;99.90
75442;DHT22;64019;48.312;14.226;2023-07-22T12:03:50;23.80;99.90
75442;DHT22;64019;48.312;14.226;2023-07-22T12:06:21;23.80;99.90
75442;DHT22;64019;48.312;14.226;2023-07-22T12:08:52;23.90;99.90
75442;DHT22;64019;48.312;14.226;2023-07-22T12:13:44;24.20;99.90
75442;DHT22;64019;48.312;14.226;2023-07-22T12:16:21;24.10;99.90
75442;DHT22;64019;48.312;14.226;2023-07-22T12:18:49;24.20;99.90
75442;DHT22;64019;48.312;14.226;2023-07-22T12:21:15;24.30;99.90
75442;DHT22;64019;48.312;14.226;2023-07-22T12:23:42;24.40;99.90
75442;DHT22;64019;48.312;14.226;2023-07-22T12:26:08;24.60;99.90
75442;DHT22;64019;48.312;14.226;2023-07-22T12:28:34;24.50;99.90
75442;DHT22;64019;48.312;14.226;2023-07-22T12:31:00;24.60;99.90
75442;DHT22;64019;48.312;14.226;2023-07-22T12:33:26;24.60;99.90
75442;DHT22;64019;48.312;14.226;2023-07-22T12:35:56;24.70;99.90
75442;DHT22;64019;48.312;14.226;2023-07-22T12:38:22;24.80;99.90
75442;DHT22;64019;48.312;14.226;2023-07-22T12:40:48;24.80;99.90
75442;DHT22;64019;48.312;14.226;2023-07-22T12:43:14;24.60;99.90
75442;DHT22;64019;48.312;14.226;2023-07-22T12:45:39;24.60;99.90
75442;DHT22;64019;48.312;14.226;2023-07-22T12:48:05;24.70;99.90
75442;DHT22;64019;48.312;14.226;2023-07-22T12:50:32;24.70;99.80
75442;DHT22;64019;48.312;14.226;2023-07-22T12:52:58;24.70;99.60
75442;DHT22;64019;48.312;14.226;2023-07-22T12:55:24;24.60;99.50
75442;DHT22;64019;48.312;14.226;2023-07-22T12:57:50;24.60;99.70
75442;DHT22;64019;48.312;14.226;2023-07-22T13:00:16;24.50;99.30
75442;DHT22;64019;48.312;14.226;2023-07-22T13:02:41;24.50;98.90
75442;DHT22;64019;48.312;14.226;2023-07-22T13:05:07;24.50;99.10
75442;DHT22;64019;48.312;14.226;2023-07-22T13:07:33;24.40;99.80
75442;DHT22;64019;48.312;14.226;2023-07-22T13:09:59;24.30;99.70
75442;DHT22;64019;48.312;14.226;2023-07-22T13:12:28;24.40;99.90
75442;DHT22;64019;48.312;14.226;2023-07-22T13:14:53;24.40;99.70
75442;DHT22;64019;48.312;14.226;2023-07-22T13:17:19;24.50;99.00
75442;DHT22;64019;48.312;14.226;2023-07-22T13:19:45;24.50;99.50
75442;DHT22;64019;48.312;14.226;2023-07-22T13:22:11;24.60;98.90
75442;DHT22;64019;48.312;14.226;2023-07-22T13:24:37;24.60;97.80
75442;DHT22;64019;48.312;14.226;2023-07-22T13:27:03;24.60;98.30
75442;DHT22;64019;48.312;14.226;2023-07-22T13:29:29;24.70;97.00
75442;DHT22;64019;48.312;14.226;2023-07-22T13:31:54;24.60;96.20
75442;DHT22;64019;48.312;14.226;2023-07-22T13:34:20;24.70;96.60
75442;DHT22;64019;48.312;14.226;2023-07-22T13:36:46;24.70;97.40
75442;DHT22;64019;48.312;14.226;2023-07-22T13:39:12;24.70;96.30
75442;DHT22;64019;48.312;14.226;2023-07-22T13:41:37;24.60;97.60
75442;DHT22;64019;48.312;14.226;2023-07-22T13:44:04;24.60;96.30
75442;DHT22;64019;48.312;14.226;2023-07-22T13:46:29;24.60;98.30
75442;DHT22;64019;48.312;14.226;2023-07-22T13:48:55;24.60;96.00
75442;DHT22;64019;48.312;14.226;2023-07-22T13:51:21;24.70;96.90
75442;DHT22;64019;48.312;14.226;2023-07-22T13:53:47;24.60;97.50
75442;DHT22;64019;48.312;14.226;2023-07-22T13:56:12;24.60;97.10
75442;DHT22;64019;48.312;14.226;2023-07-22T13:58:38;24.70;97.30
75442;DHT22;64019;48.312;14.226;2023-07-22T14:01:04;24.70;96.60
75442;DHT22;64019;48.312;14.226;2023-07-22T14:03:30;24.80;96.20
75442;DHT22;64019;48.312;14.226;2023-07-22T14:05:55;24.80;95.80
75442;DHT22;64019;48.312;14.226;2023-07-22T14:08:21;24.90;96.30
75442;DHT22;64019;48.312;14.226;2023-07-22T14:10:47;25.10;96.70
75442;DHT22;64019;48.312;14.226;2023-07-22T14:13:13;25.20;95.80
75442;DHT22;64019;48.312;14.226;2023-07-22T14:15:39;25.30;96.20
75442;DHT22;64019;48.312;14.226;2023-07-22T14:18:04;25.30;96.50
75442;DHT22;64019;48.312;14.226;2023-07-22T14:20:30;25.40;96.40
75442;DHT22;64019;48.312;14.226;2023-07-22T14:22:56;25.40;95.90
75442;DHT22;64019;48.312;14.226;2023-07-22T14:25:22;25.40;95.20
75442;DHT22;64019;48.312;14.226;2023-07-22T14:27:48;25.30;95.00
75442;DHT22;64019;48.312;14.226;2023-07-22T14:30:14;25.20;94.80
75442;DHT22;64019;48.312;14.226;2023-07-22T14:32:40;25.20;95.60
75442;DHT22;64019;48.312;14.226;2023-07-22T14:35:06;25.20;95.80
75442;DHT22;64019;48.312;14.226;2023-07-22T14:37:32;25.20;95.80
75442;DHT22;64019;48.312;14.226;2023-07-22T14:39:57;25.30;96.10
75442;DHT22;64019;48.312;14.226;2023-07-22T14:42:23;25.20;95.80
75442;DHT22;64019;48.312;14.226;2023-07-22T14:44:49;25.10;95.60
75442;DHT22;64019;48.312;14.226;2023-07-22T14:47:14;25.10;95.90
75442;DHT22;64019;48.312;14.226;2023-07-22T14:49:40;25.20;96.60
75442;DHT22;64019;48.312;14.226;2023-07-22T14:52:06;25.30;96.50
75442;DHT22;64019;48.312;14.226;2023-07-22T14:54:33;25.30;94.80
75442;DHT22;64019;48.312;14.226;2023-07-22T14:56:59;25.20;94.70
75442;DHT22;64019;48.312;14.226;2023-07-22T14:59:24;25.20;95.50
75442;DHT22;64019;48.312;14.226;2023-07-22T15:01:51;25.30;96.10
75442;DHT22;64019;48.312;14.226;2023-07-22T15:04:18;25.30;96.00
75442;DHT22;64019;48.312;14.226;2023-07-22T15:06:44;25.40;95.90
75442;DHT22;64019;48.312;14.226;2023-07-22T15:09:09;25.40;95.10
75442;DHT22;64019;48.312;14.226;2023-07-22T15:11:36;25.40;95.20
75442;DHT22;64019;48.312;14.226;2023-07-22T15:14:03;25.40;95.30
75442;DHT22;64019;48.312;14.226;2023-07-22T15:16:29;25.40;94.30
75442;DHT22;64019;48.312;14.226;2023-07-22T15:18:55;25.30;95.10
75442;DHT22;64019;48.312;14.226;2023-07-22T15:21:21;25.40;96.40
75442;DHT22;64019;48.312;14.226;2023-07-22T15:23:48;25.50;96.50
75442;DHT22;64019;48.312;14.226;2023-07-22T15:26:14;25.50;95.90